ASN Aircraft accident Airbus A321-231 TC-OEB Antalya Airport (AYT/LTAI)


Status:

Date:Saturday 26 January 2019
Time:ca. 11:00
Type:
Airbus A321-231
Operator:Onur Air
Registration:TC-OEB
C/n / msn:968
First flight:1999-02-18 (20 years)
Engines:IAE V2533-A5
Crew:Fatalities: 0 / Occupants: 0
Passengers:Fatalities: 0 / Occupants: 0
Total:Fatalities: 0 / Occupants: 0
Aircraft damage:Substantial
Location:Antalya Airport (AYT/LTAI) (   Turkey)
Phase:Standing (STD)
Nature:
Departure airport:
Destination airport:Antalya Airport (AYT/LTAI), Turkey

Narrative:
A thunderstorm with strong winds and a tornado caused several injuries as well as damage to aircraft, vehicles and airport equipment at Antalya Airport, Turkey. 
An Onur Air Airbus A321 (TC-OEB) suffered serious impact damage to the nose cone and right hand forward fuselage.

METAR Weather report:07:20 UTC / 10:20 local time:
LTAI 260720Z 15024G35KT 1600 R36C/0750D R18C/1500D R36R/1100D R18L/1100U -TSRA BLDU SCT015CB BKN025 15/10 Q1003 RETSRA NOSIG

07:50 UTC / 10:50 local time:
LTAI 260750Z 16028G45KT 1600 R36C/1100D R18C/1200N R36R/1200D R18L/1100U -TSRA BLDU SCT015CB BKN025 15/09 Q1004 NOSIG RMK RWY18C 15030G48KT RWY36R 16027G40KT RWY18L 16027G39KT 

08:20 UTC / 11:20 local time:
LTAI 260820Z 19028G39KT 1600 R36C/1000D R18C/1000N R36R/1000N R18L/0700U +TSRA BLDU SCT015CB BKN025 11/07 Q1005 BECMG NSW 

08:50 UTC / 11:50 local time:
LTAI 260850Z 18013KT 140V220 1600 R36C/P1500U R18C/1500N R36R/1500N R18L/0600U +TSRA BLDU SCT015CB BKN025 13/11 Q1005 BECMG 15025G40KT NSW 

09:20 UTC / 12:20 local time:
LTAI 260920Z 17020G30KT 2000 R36C/1000N R18C/1000N R36R/1000N R18L/0450D -TSRA BLDU SCT015CB BKN025 09/06 Q1005 RETSRA NOSIG RMK RWY18C 16018KT RWY36R 17019KT RWY18L 16020KT 

09:50 UTC / 12:50 local time:
LTAI 260950Z 18022G35KT 2000 R36C/1000N R18C/1000N R36R/1000N R18L/0400U -TSRA BLDU SCT015CB BKN025 13/08 Q1004 WS ALL RWY NOSIG 

Antalya struggles to recover after devastating tornado

A tornado that reached speeds of 100 kilometers per hour wreaked havoc in the Mediterranean city of Antalya on Thursday. Locals and authorities examined the damage it left in its wake and started removing debris.

The tornado, which occurred at sea near the Kemer and Kumluca districts, was particularly devastating to crops in greenhouses prevalent in the city’s rural areas. A 13-year-old girl and a 40-year-old man, who were hit by parts of a roof the tornado ripped apart, were among the victims of the disaster, while some 15 others were injured. A search was underway on Friday for a 20-year-old university student who went missing when her car drifted into a river due to the tornado. Her mother survived the incident.

Police squads search for Buse Acar, a 20-year-old woman who went missing after a car she was traveling in drifted into a river during the tornado, Jan. 25, 2019.

The disaster affected eight districts in Antalya, a popular destination for Turkish and foreign tourists. Accompanied by a strong storm, the tornadoes tore apart roofs and knocked down trees, while giant waves battered the city’s shores. Greenhouses were among the most damaged as the tornado ripped through them and devastated crops. Farmers rushed to pick up unaffected crops on Friday. Authorities were still investigating the damage, but it is believed that the disaster cost millions of Turkish liras in damage to greenhouses in this fruit and vegetable hub that delivers produce to cities all across Turkey. Power cuts that affected the Finike district ended on Friday after repairs to power lines that had been knocked down by the storm.

Weather forecasts for Friday and Saturday indicated more bad weather with heavy rainfall. In the Kumluca district, the municipality warned locals working outdoors to be cautious of strong winds.

İsmail Demirel, who owns a greenhouse where he raises tomatoes in the Kumluca district, said he “lost everything in five minutes” [of the tornado]. Speaking to the Demirören News Agency, Demirel said he did not have insurance for the greenhouse and they had just started harvesting on Thursday when the tornado hit. “I am trying to salvage what’s left,” he said as he scoured the wreckage of the greenhouse and picked up still edible tomatoes. He said the tornado cost him TL 300,000.

Muhammet Çelik, another greenhouse owner, said the tornado had reached 10 kilometers inland and workers in the greenhouse narrowly escaped the disaster. “Aubergines, peppers, cucumbers: all were destroyed. Produce had already been hit by floods [in the past months], and it drove up prices. There is nothing left for farmers to earn,” he lamented.

Leading a delegation of high-ranking officials visiting tornado-hit areas, Minister of Agriculture and Forestry Bekir Pakdemirli said about 5,000 acres of greenhouses were damaged in the Finike and Kumluca districts and the government would later announce payments to farmers whose crops were damaged by the disaster. “Preliminary examination will be completed within a week. We are looking for ways to heal the wounds here,” he told reporters. Pakdemirli said Antalya saw “rainfalls above normal” in addition to the tornado.

Tornadoes, which most commonly occur in the United States, are a rare weather event in Turkey and less intense. They are mostly sighted at sea, off the country’s Mediterranean shores. Authorities warned the public to stay indoors in a basement or lower floors during tornadoes and cut off power and water supplies, and if they are driving, leave the car and shelter in the nearest building or in a ditch if there are no buildings around.

Leave a Reply

Your email address will not be published.